Time;durP1;ratioP1;P1;durP2;ratioP2;P2;SDS_P1;SDS_P2;PMS_P1;PMS_P2;Temp;Humidity;BMP_temperature;BMP_pressure;BME280_temperature;BME280_humidity;BME280_pressure;Samples;Min_cycle;Max_cycle;Signal;HPM_P1;HPM_P2
2021/03/04 00:01:13;;;;;;;24.55;9.02;;;;;;;;;;5065549;28;20044;-71
2021/03/04 00:03:39;;;;;;;14.37;8.87;;;;;;;;;;5065068;28;20480;-71
2021/03/04 00:06:05;;;;;;;13.70;7.20;;;;;;;;;;5066688;28;20041;-71
2021/03/04 00:08:32;;;;;;;16.02;9.25;;;;;;;;;;5069739;28;20488;-71
2021/03/04 00:10:58;;;;;;;13.90;9.23;;;;;;;;;;5063802;28;20455;-71
2021/03/04 00:13:24;;;;;;;14.18;9.13;;;;;;;;;;5067127;28;20044;-71
2021/03/04 00:15:53;;;;;;;15.23;8.88;;;;;;;;;;5067087;28;20040;-71
2021/03/04 00:18:20;;;;;;;16.77;9.25;;;;;;;;;;5068633;28;20048;-71
2021/03/04 00:20:46;;;;;;;14.82;8.80;;;;;;;;;;5066051;28;20036;-71
2021/03/04 00:23:12;;;;;;;12.80;8.15;;;;;;;;;;5066689;28;20051;-71
2021/03/04 00:25:38;;;;;;;15.00;9.07;;;;;;;;;;5066246;28;20032;-71
2021/03/04 00:28:05;;;;;;;16.85;9.18;;;;;;;;;;5063723;28;20048;-71
2021/03/04 00:30:31;;;;;;;15.68;9.30;;;;;;;;;;5065512;28;20436;-71
2021/03/04 00:32:57;;;;;;;16.58;8.93;;;;;;;;;;5068269;28;20500;-71
2021/03/04 00:35:24;;;;;;;16.48;8.93;;;;;;;;;;5063900;28;20485;-71
2021/03/04 00:37:51;;;;;;;19.02;9.10;;;;;;;;;;5070636;28;20052;-71
2021/03/04 00:40:18;;;;;;;19.92;10.93;;;;;;;;;;5061519;28;20223;-71
2021/03/04 00:42:45;;;;;;;16.50;9.73;;;;;;;;;;5066899;28;20098;-71
2021/03/04 00:45:13;;;;;;;17.13;9.32;;;;;;;;;;5066476;28;20135;-71
2021/03/04 00:47:42;;;;;;;15.70;9.50;;;;;;;;;;5066215;28;20043;-71
2021/03/04 00:50:10;;;;;;;15.60;9.93;;;;;;;;;;5064872;28;20048;-71
2021/03/04 00:52:36;;;;;;;18.35;9.93;;;;;;;;;;5067273;28;20063;-71
2021/03/04 00:55:02;;;;;;;17.70;9.75;;;;;;;;;;5069706;28;20136;-70
2021/03/04 00:57:29;;;;;;;18.13;9.98;;;;;;;;;;5063530;28;20519;-71
2021/03/04 00:59:55;;;;;;;18.20;10.00;;;;;;;;;;5062634;28;20083;-71
2021/03/04 01:02:21;;;;;;;18.88;9.38;;;;;;;;;;5064103;28;20052;-71
2021/03/04 01:04:47;;;;;;;23.45;9.52;;;;;;;;;;5063448;28;20122;-71
2021/03/04 01:07:14;;;;;;;18.30;9.18;;;;;;;;;;5067596;28;20090;-71
2021/03/04 01:09:40;;;;;;;17.10;9.23;;;;;;;;;;5068836;28;20048;-71
2021/03/04 01:12:06;;;;;;;16.95;8.82;;;;;;;;;;5063410;28;20033;-71
2021/03/04 01:14:33;;;;;;;17.02;8.85;;;;;;;;;;5064806;28;20053;-71
2021/03/04 01:16:59;;;;;;;18.25;9.13;;;;;;;;;;5065534;28;20037;-71
2021/03/04 01:19:26;;;;;;;18.83;9.05;;;;;;;;;;5063069;28;20554;-71
2021/03/04 01:21:52;;;;;;;16.37;8.70;;;;;;;;;;5065004;28;20048;-71
2021/03/04 01:24:18;;;;;;;17.42;8.50;;;;;;;;;;5067574;28;20307;-71
2021/03/04 01:26:44;;;;;;;14.43;8.48;;;;;;;;;;5066254;28;20093;-71
2021/03/04 01:29:10;;;;;;;17.42;8.68;;;;;;;;;;5070569;28;20061;-71
2021/03/04 01:31:36;;;;;;;14.55;7.90;;;;;;;;;;5067595;28;20438;-71
2021/03/04 01:34:03;;;;;;;14.20;7.63;;;;;;;;;;5060620;28;20484;-71
2021/03/04 01:36:29;;;;;;;16.92;7.50;;;;;;;;;;5064430;28;20029;-71
2021/03/04 01:38:55;;;;;;;15.45;6.88;;;;;;;;;;5062579;28;20071;-71
2021/03/04 01:41:22;;;;;;;10.13;5.93;;;;;;;;;;5059591;28;20048;-70
2021/03/04 01:43:48;;;;;;;11.80;6.50;;;;;;;;;;5063091;28;20044;-70
2021/03/04 01:46:15;;;;;;;8.85;6.30;;;;;;;;;;5067478;28;20033;-71
2021/03/04 01:48:49;;;;;;;8.48;5.75;;;;;;;;;;5083828;28;20499;-70
2021/03/04 01:51:16;;;;;;;9.10;6.00;;;;;;;;;;5064816;28;20042;-71
2021/03/04 01:53:42;;;;;;;11.07;6.13;;;;;;;;;;5065057;28;20101;-71
2021/03/04 01:56:09;;;;;;;9.52;5.40;;;;;;;;;;5067993;28;20391;-71
2021/03/04 01:58:35;;;;;;;8.75;5.22;;;;;;;;;;5063901;28;20049;-71
2021/03/04 02:01:02;;;;;;;7.68;5.28;;;;;;;;;;5060761;28;20044;-71
2021/03/04 02:03:28;;;;;;;4.67;3.30;;;;;;;;;;5064856;28;20148;-71
2021/03/04 02:05:55;;;;;;;7.80;5.15;;;;;;;;;;5063781;28;20048;-71
2021/03/04 02:08:27;;;;;;;6.78;4.78;;;;;;;;;;5067175;28;20064;-71
2021/03/04 02:11:06;;;;;;;9.13;4.60;;;;;;;;;;5064210;28;20048;-71
2021/03/04 02:13:37;;;;;;;9.18;5.70;;;;;;;;;;5064755;28;20512;-71
2021/03/04 02:16:06;;;;;;;8.15;5.20;;;;;;;;;;5064984;28;20052;-71
2021/03/04 02:18:34;;;;;;;8.35;4.20;;;;;;;;;;5067171;28;20071;-71
2021/03/04 02:21:20;;;;;;;6.78;3.75;;;;;;;;;;5062990;28;20131;-71
2021/03/04 02:23:52;;;;;;;5.93;3.75;;;;;;;;;;5062984;28;20407;-70
2021/03/04 02:26:18;;;;;;;5.18;3.40;;;;;;;;;;5068008;28;20442;-70
2021/03/04 02:28:46;;;;;;;4.65;2.90;;;;;;;;;;5067916;28;20036;-70
2021/03/04 02:31:12;;;;;;;;;;;;;;;;;;5065825;28;20349;-71
2021/03/04 02:33:39;;;;;;;7.53;2.72;;;;;;;;;;5067014;28;20418;-71
2021/03/04 02:36:05;;;;;;;3.40;2.55;;;;;;;;;;5071270;28;20044;-71
2021/03/04 02:38:32;;;;;;;3.13;2.60;;;;;;;;;;5064241;28;20090;-71
2021/03/04 02:40:58;;;;;;;3.08;2.55;;;;;;;;;;5067468;28;20110;-70
2021/03/04 02:43:25;;;;;;;3.30;2.40;;;;;;;;;;5063326;28;20072;-71
2021/03/04 02:45:52;;;;;;;2.92;2.25;;;;;;;;;;5067944;28;20040;-70
2021/03/04 02:48:20;;;;;;;3.55;2.72;;;;;;;;;;5064428;28;20651;-71
2021/03/04 02:50:48;;;;;;;5.10;2.40;;;;;;;;;;5067547;28;20454;-71
2021/03/04 02:53:15;;;;;;;3.15;2.28;;;;;;;;;;5066852;28;20041;-70
2021/03/04 02:55:41;;;;;;;3.13;2.13;;;;;;;;;;5068596;28;20043;-71
2021/03/04 02:58:08;;;;;;;5.47;2.30;;;;;;;;;;5068455;28;20370;-71
2021/03/04 03:00:35;;;;;;;3.40;2.40;;;;;;;;;;5065154;28;20147;-70
2021/03/04 03:03:05;;;;;;;4.55;2.55;;;;;;;;;;5064699;28;20043;-71
2021/03/04 03:05:32;;;;;;;5.90;2.42;;;;;;;;;;5069235;28;20499;-71
2021/03/04 03:07:59;;;;;;;2.85;1.85;;;;;;;;;;5063913;28;20044;-71
2021/03/04 03:10:25;;;;;;;4.90;2.37;;;;;;;;;;5063893;28;20512;-71
2021/03/04 03:12:52;;;;;;;3.35;2.00;;;;;;;;;;5061643;28;20283;-71
2021/03/04 03:15:19;;;;;;;3.28;2.00;;;;;;;;;;5065121;28;20086;-70
2021/03/04 03:17:46;;;;;;;1.92;1.55;;;;;;;;;;5066490;28;20040;-71
2021/03/04 03:20:15;;;;;;;3.88;1.77;;;;;;;;;;5069081;28;20072;-70
2021/03/04 03:22:41;;;;;;;3.90;1.95;;;;;;;;;;5057705;28;20101;-71
2021/03/04 03:25:08;;;;;;;4.05;1.88;;;;;;;;;;5062757;28;20106;-71
2021/03/04 03:27:35;;;;;;;2.80;1.97;;;;;;;;;;5069745;28;20086;-71
2021/03/04 03:30:06;;;;;;;2.70;1.58;;;;;;;;;;5063568;28;20052;-71
2021/03/04 03:32:32;;;;;;;2.50;1.40;;;;;;;;;;5062568;28;20048;-71
2021/03/04 03:35:00;;;;;;;4.50;1.70;;;;;;;;;;5064063;28;20519;-71
2021/03/04 03:37:26;;;;;;;3.50;1.50;;;;;;;;;;5063452;28;20087;-71
2021/03/04 03:39:54;;;;;;;4.88;1.48;;;;;;;;;;5064625;28;20404;-71
2021/03/04 03:42:21;;;;;;;3.63;1.52;;;;;;;;;;5068731;28;20052;-71
2021/03/04 03:44:48;;;;;;;4.28;1.63;;;;;;;;;;5065609;28;20044;-71
2021/03/04 03:47:15;;;;;;;3.17;1.20;;;;;;;;;;5063365;28;20131;-71
2021/03/04 03:49:42;;;;;;;4.05;1.30;;;;;;;;;;5064301;28;20048;-71
2021/03/04 03:52:08;;;;;;;1.40;1.02;;;;;;;;;;5067625;28;20051;-71
2021/03/04 03:54:36;;;;;;;2.15;1.20;;;;;;;;;;5066848;28;20037;-71
2021/03/04 03:57:03;;;;;;;1.45;1.10;;;;;;;;;;5067218;28;20044;-71
2021/03/04 03:59:29;;;;;;;;;;;;;;;;;;5067286;28;20045;-71
2021/03/04 04:01:56;;;;;;;1.92;1.13;;;;;;;;;;5064795;28;19931;-71
2021/03/04 04:04:25;;;;;;;2.00;1.00;;;;;;;;;;5066875;28;20040;-71
2021/03/04 04:06:52;;;;;;;2.20;0.88;;;;;;;;;;5066342;28;20118;-71
2021/03/04 04:09:19;;;;;;;1.50;1.00;;;;;;;;;;5066737;28;20090;-71
2021/03/04 04:11:45;;;;;;;4.32;1.20;;;;;;;;;;5068640;28;20044;-71
2021/03/04 04:14:11;;;;;;;3.85;1.00;;;;;;;;;;5070273;28;20045;-71
2021/03/04 04:16:37;;;;;;;1.75;1.13;;;;;;;;;;5062733;28;20045;-71
2021/03/04 04:19:04;;;;;;;3.45;1.10;;;;;;;;;;5068710;28;20519;-70
2021/03/04 04:21:30;;;;;;;4.88;1.20;;;;;;;;;;5064202;28;20079;-71
2021/03/04 04:23:56;;;;;;;1.60;1.00;;;;;;;;;;5065548;28;20127;-71
2021/03/04 04:26:23;;;;;;;0.85;0.60;;;;;;;;;;5064898;28;20044;-71
2021/03/04 04:28:49;;;;;;;4.00;0.90;;;;;;;;;;5066164;28;20079;-70
2021/03/04 04:31:16;;;;;;;1.65;0.93;;;;;;;;;;5063978;28;20040;-71
2021/03/04 04:33:42;;;;;;;1.90;1.20;;;;;;;;;;5060135;28;20089;-71
2021/03/04 04:36:08;;;;;;;2.00;1.00;;;;;;;;;;5068457;28;20290;-71
2021/03/04 04:38:35;;;;;;;2.38;0.90;;;;;;;;;;5063156;28;20047;-71
2021/03/04 04:41:01;;;;;;;2.53;1.00;;;;;;;;;;5066364;28;20132;-71
2021/03/04 04:43:27;;;;;;;0.80;0.70;;;;;;;;;;5068477;28;20041;-71
2021/03/04 04:45:53;;;;;;;1.80;0.82;;;;;;;;;;5063328;28;20041;-71
2021/03/04 04:48:20;;;;;;;2.35;1.00;;;;;;;;;;5065617;28;20602;-71
2021/03/04 04:51:06;;;;;;;4.22;1.08;;;;;;;;;;5059645;28;20446;-71
2021/03/04 04:53:34;;;;;;;4.63;1.20;;;;;;;;;;5061867;28;20032;-71
2021/03/04 04:56:00;;;;;;;2.10;1.13;;;;;;;;;;5068249;28;20055;-70
2021/03/04 04:58:26;;;;;;;1.90;0.80;;;;;;;;;;5061429;28;20036;-70
2021/03/04 05:00:52;;;;;;;2.50;0.90;;;;;;;;;;5068115;28;20399;-70
2021/03/04 05:03:18;;;;;;;3.83;1.17;;;;;;;;;;5063673;28;20044;-70
2021/03/04 05:05:44;;;;;;;0.95;0.70;;;;;;;;;;5064532;28;20463;-70
2021/03/04 05:08:11;;;;;;;0.60;0.60;;;;;;;;;;5066371;28;20115;-71
2021/03/04 05:10:37;;;;;;;1.08;0.80;;;;;;;;;;5065964;28;20040;-71
2021/03/04 05:13:04;;;;;;;4.13;0.80;;;;;;;;;;5065931;28;20041;-71
2021/03/04 05:15:30;;;;;;;2.65;0.80;;;;;;;;;;5066626;28;20066;-71
2021/03/04 05:17:56;;;;;;;2.83;1.05;;;;;;;;;;5064116;28;20484;-71
2021/03/04 05:20:22;;;;;;;1.10;1.00;;;;;;;;;;5065888;28;20558;-70
2021/03/04 05:22:49;;;;;;;2.53;0.80;;;;;;;;;;5067818;28;20392;-71
2021/03/04 05:25:15;;;;;;;1.30;0.65;;;;;;;;;;5061457;28;20036;-70
2021/03/04 05:27:41;;;;;;;1.25;0.55;;;;;;;;;;5058581;28;20151;-70
2021/03/04 05:30:08;;;;;;;2.08;1.00;;;;;;;;;;5066612;28;20517;-70
2021/03/04 05:32:34;;;;;;;4.88;1.17;;;;;;;;;;5056999;28;20083;-71
2021/03/04 05:35:02;;;;;;;2.70;1.00;;;;;;;;;;5058844;28;20137;-70
2021/03/04 05:37:28;;;;;;;0.82;0.82;;;;;;;;;;5063443;28;20060;-70
2021/03/04 05:39:54;;;;;;;3.40;0.90;;;;;;;;;;5062718;28;20039;-70
2021/03/04 05:42:20;;;;;;;5.93;1.10;;;;;;;;;;5061509;28;20071;-71
2021/03/04 05:44:47;;;;;;;1.95;1.10;;;;;;;;;;5065389;28;20058;-71
2021/03/04 05:47:13;;;;;;;1.92;0.75;;;;;;;;;;5062210;28;20478;-70
2021/03/04 05:49:58;;;;;;;2.38;1.00;;;;;;;;;;5066605;28;20412;-70
2021/03/04 05:52:24;;;;;;;3.80;1.30;;;;;;;;;;5062809;28;20037;-70
2021/03/04 05:54:51;;;;;;;5.60;1.48;;;;;;;;;;5065955;28;20050;-70
2021/03/04 05:57:17;;;;;;;1.73;1.10;;;;;;;;;;5061515;28;20044;-70
2021/03/04 05:59:44;;;;;;;1.30;0.90;;;;;;;;;;5061416;28;20155;-70
2021/03/04 06:02:10;;;;;;;2.20;1.27;;;;;;;;;;5063223;28;20548;-70
2021/03/04 06:04:36;;;;;;;5.15;1.20;;;;;;;;;;5061433;28;20098;-70
2021/03/04 06:07:03;;;;;;;2.72;1.05;;;;;;;;;;5067456;28;20124;-70
2021/03/04 06:09:30;;;;;;;3.75;1.20;;;;;;;;;;5065213;28;20036;-70
2021/03/04 06:12:03;;;;;;;2.63;1.33;;;;;;;;;;5064562;28;20487;-70
2021/03/04 06:14:30;;;;;;;2.50;1.08;;;;;;;;;;5062837;28;20040;-70
2021/03/04 06:16:56;;;;;;;6.15;1.30;;;;;;;;;;5067453;28;20064;-70
2021/03/04 06:19:22;;;;;;;4.78;1.30;;;;;;;;;;5067889;28;20484;-70
2021/03/04 06:21:58;;;;;;;6.53;1.25;;;;;;;;;;5063424;28;20044;-70
2021/03/04 06:24:24;;;;;;;5.45;1.20;;;;;;;;;;5062743;28;20045;-70
2021/03/04 06:26:54;;;;;;;2.35;1.27;;;;;;;;;;5067270;28;20044;-70
2021/03/04 06:29:22;;;;;;;4.05;1.48;;;;;;;;;;5058993;28;20063;-71
2021/03/04 06:32:22;;;;;;;3.22;1.20;;;;;;;;;;5065771;28;20052;-70
2021/03/04 06:35:05;;;;;;;4.50;1.10;;;;;;;;;;5062165;28;20515;-70
2021/03/04 06:37:32;;;;;;;3.63;1.25;;;;;;;;;;5069201;28;20041;-70
2021/03/04 06:39:58;;;;;;;1.05;0.95;;;;;;;;;;5064299;28;20438;-70
2021/03/04 06:42:25;;;;;;;2.80;0.90;;;;;;;;;;5067305;28;20040;-70
2021/03/04 06:44:55;;;;;;;5.45;1.30;;;;;;;;;;5066920;28;20551;-70
2021/03/04 06:47:25;;;;;;;2.13;0.77;;;;;;;;;;5067056;28;20098;-70
2021/03/04 06:49:52;;;;;;;2.85;1.05;;;;;;;;;;5064670;28;20055;-70
2021/03/04 06:52:37;;;;;;;4.78;0.88;;;;;;;;;;5065269;28;20090;-70
2021/03/04 06:55:10;;;;;;;3.20;0.85;;;;;;;;;;5059982;28;20041;-70
2021/03/04 06:57:37;;;;;;;2.45;0.93;;;;;;;;;;5063537;28;20047;-70
2021/03/04 07:00:07;;;;;;;2.95;1.23;;;;;;;;;;5066314;28;20055;-70
2021/03/04 07:02:33;;;;;;;6.10;1.80;;;;;;;;;;5060843;28;20087;-70
2021/03/04 07:05:01;;;;;;;6.80;1.55;;;;;;;;;;5064136;28;20040;-69
2021/03/04 07:07:28;;;;;;;4.70;1.33;;;;;;;;;;5062024;28;20506;-70
2021/03/04 07:09:58;;;;;;;3.17;1.23;;;;;;;;;;5074029;28;20040;-70
2021/03/04 07:12:25;;;;;;;4.07;1.60;;;;;;;;;;5067279;28;20041;-70
2021/03/04 07:14:52;;;;;;;3.20;1.10;;;;;;;;;;5065794;28;20067;-69
2021/03/04 07:17:21;;;;;;;3.47;1.08;;;;;;;;;;5072446;28;20090;-69
2021/03/04 07:19:49;;;;;;;2.50;0.90;;;;;;;;;;5066431;28;20454;-70
2021/03/04 07:22:16;;;;;;;2.40;0.95;;;;;;;;;;5070533;28;20448;-69
2021/03/04 07:24:43;;;;;;;3.50;1.20;;;;;;;;;;5070878;28;20045;-70
2021/03/04 07:27:12;;;;;;;3.13;0.80;;;;;;;;;;5073379;28;20032;-69
2021/03/04 07:29:38;;;;;;;2.58;1.15;;;;;;;;;;5071089;28;20064;-69
2021/03/04 07:32:05;;;;;;;8.55;1.08;;;;;;;;;;5070253;28;20139;-69
2021/03/04 07:34:33;;;;;;;2.70;0.90;;;;;;;;;;5068892;28;20122;-69
2021/03/04 07:37:00;;;;;;;2.97;1.00;;;;;;;;;;5072420;28;20636;-69
2021/03/04 07:39:34;;;;;;;2.75;1.05;;;;;;;;;;5073180;28;20404;-70
2021/03/04 07:42:15;;;;;;;1.35;0.90;;;;;;;;;;5071542;28;20056;-69
2021/03/04 07:44:41;;;;;;;4.28;0.98;;;;;;;;;;5072851;28;20036;-69
2021/03/04 07:47:08;;;;;;;1.85;0.80;;;;;;;;;;5069033;28;20041;-70
2021/03/04 07:49:45;;;;;;;2.08;0.88;;;;;;;;;;5067747;28;20041;-70
2021/03/04 07:52:11;;;;;;;1.90;1.00;;;;;;;;;;5073948;28;20036;-69
2021/03/04 07:54:41;;;;;;;3.55;0.88;;;;;;;;;;5067639;28;20044;-69
2021/03/04 07:57:11;;;;;;;6.82;1.20;;;;;;;;;;5063661;28;20044;-69
2021/03/04 07:59:57;;;;;;;4.28;1.20;;;;;;;;;;5066992;28;20116;-69
2021/03/04 08:02:23;;;;;;;6.05;1.17;;;;;;;;;;5066514;28;20055;-69
2021/03/04 08:04:50;;;;;;;4.30;0.83;;;;;;;;;;5063877;28;20036;-69
2021/03/04 08:07:26;;;;;;;5.45;1.27;;;;;;;;;;5068526;28;20283;-69
2021/03/04 08:10:04;;;;;;;1.50;0.80;;;;;;;;;;5069677;28;20044;-69
2021/03/04 08:12:30;;;;;;;1.80;1.00;;;;;;;;;;5064347;28;20091;-69
2021/03/04 08:14:57;;;;;;;4.13;0.98;;;;;;;;;;5069206;28;20050;-70
2021/03/04 08:17:34;;;;;;;3.92;1.08;;;;;;;;;;5073254;28;20127;-69
2021/03/04 08:20:12;;;;;;;7.40;1.10;;;;;;;;;;5062244;28;20041;-69
2021/03/04 08:22:45;;;;;;;4.80;1.33;;;;;;;;;;5063597;28;20124;-70
2021/03/04 08:25:17;;;;;;;6.05;1.48;;;;;;;;;;5061722;28;20098;-70
2021/03/04 08:27:43;;;;;;;7.22;1.40;;;;;;;;;;5070088;28;20121;-69
2021/03/04 08:30:09;;;;;;;4.88;1.40;;;;;;;;;;5065168;28;20071;-69
2021/03/04 08:32:36;;;;;;;4.70;1.38;;;;;;;;;;5069937;28;20045;-69
2021/03/04 08:35:16;;;;;;;4.82;1.42;;;;;;;;;;5071379;28;20033;-70
2021/03/04 08:37:43;;;;;;;7.55;1.55;;;;;;;;;;5069082;28;20048;-70
2021/03/04 08:40:09;;;;;;;6.95;1.40;;;;;;;;;;5066685;28;20052;-70
2021/03/04 08:42:35;;;;;;;2.83;1.23;;;;;;;;;;5062619;28;20041;-70
2021/03/04 08:45:02;;;;;;;3.60;1.15;;;;;;;;;;5068280;28;20059;-70
2021/03/04 08:47:29;;;;;;;4.22;1.50;;;;;;;;;;5063260;28;20599;-70
2021/03/04 08:49:57;;;;;;;5.15;1.05;;;;;;;;;;5067442;28;20052;-70
2021/03/04 08:52:26;;;;;;;7.97;1.38;;;;;;;;;;5063144;28;20041;-70
2021/03/04 08:54:57;;;;;;;6.32;1.10;;;;;;;;;;5066532;28;20643;-70
2021/03/04 08:57:27;;;;;;;2.92;1.00;;;;;;;;;;5064347;28;20060;-70
2021/03/04 09:00:06;;;;;;;3.25;1.10;;;;;;;;;;5066126;28;20492;-70
2021/03/04 09:02:32;;;;;;;2.75;1.00;;;;;;;;;;5065038;28;20124;-71
2021/03/04 09:04:59;;;;;;;10.73;1.10;;;;;;;;;;5068895;28;20468;-70
2021/03/04 09:07:26;;;;;;;3.10;1.10;;;;;;;;;;5067400;28;20136;-70
2021/03/04 09:09:57;;;;;;;6.50;1.27;;;;;;;;;;5076357;28;20144;-70
2021/03/04 09:12:23;;;;;;;5.20;1.20;;;;;;;;;;5070003;28;20090;-70
2021/03/04 09:14:53;;;;;;;3.97;1.08;;;;;;;;;;5066861;28;20044;-70
2021/03/04 09:17:19;;;;;;;3.65;0.82;;;;;;;;;;5065682;28;20041;-70
2021/03/04 09:19:51;;;;;;;3.85;0.82;;;;;;;;;;5066102;28;20043;-70
2021/03/04 09:22:18;;;;;;;6.45;1.40;;;;;;;;;;5071081;28;20036;-70
2021/03/04 09:24:51;;;;;;;2.65;1.10;;;;;;;;;;5069160;28;20037;-70
2021/03/04 09:27:19;;;;;;;2.45;0.90;;;;;;;;;;5065490;28;20396;-71
2021/03/04 09:29:46;;;;;;;4.28;1.08;;;;;;;;;;5065865;28;20048;-70
2021/03/04 09:32:12;;;;;;;3.00;0.95;;;;;;;;;;5066703;28;20043;-70
2021/03/04 09:34:43;;;;;;;1.42;0.82;;;;;;;;;;5064279;28;20048;-70
2021/03/04 09:37:10;;;;;;;3.60;0.70;;;;;;;;;;5065289;28;20040;-70
2021/03/04 09:39:39;;;;;;;2.45;0.75;;;;;;;;;;5064680;28;20587;-70
2021/03/04 09:42:06;;;;;;;5.28;1.20;;;;;;;;;;5069918;28;20059;-70
2021/03/04 09:44:32;;;;;;;4.10;1.25;;;;;;;;;;5069616;28;20045;-70
2021/03/04 09:46:59;;;;;;;3.38;0.90;;;;;;;;;;5067479;28;20322;-70
2021/03/04 09:49:32;;;;;;;1.77;0.77;;;;;;;;;;5063761;28;20483;-70
2021/03/04 09:51:58;;;;;;;5.38;1.30;;;;;;;;;;5069447;28;20037;-70
2021/03/04 09:54:26;;;;;;;3.60;1.02;;;;;;;;;;5062965;28;20037;-70
2021/03/04 09:57:23;;;;;;;1.85;0.85;;;;;;;;;;5064871;28;20491;-70
2021/03/04 09:59:51;;;;;;;6.93;1.20;;;;;;;;;;5061208;28;20792;-70
2021/03/04 10:02:18;;;;;;;1.73;0.90;;;;;;;;;;5064274;28;20106;-70
2021/03/04 10:05:00;;;;;;;6.20;1.15;;;;;;;;;;5061921;28;20052;-70
2021/03/04 10:07:28;;;;;;;4.00;1.13;;;;;;;;;;5062070;28;20057;-70
2021/03/04 10:09:54;;;;;;;2.72;0.88;;;;;;;;;;5071254;28;20051;-70
2021/03/04 10:12:21;;;;;;;4.53;1.00;;;;;;;;;;5069794;28;20128;-70
2021/03/04 10:14:51;;;;;;;2.53;1.00;;;;;;;;;;5070317;28;20052;-71
2021/03/04 10:17:17;;;;;;;2.30;1.05;;;;;;;;;;5067234;28;20036;-71
2021/03/04 10:19:44;;;;;;;3.05;1.10;;;;;;;;;;5062679;28;20094;-71
2021/03/04 10:22:10;;;;;;;4.43;0.95;;;;;;;;;;5066964;28;20043;-71
2021/03/04 10:24:37;;;;;;;2.58;0.90;;;;;;;;;;5069516;28;20048;-71
2021/03/04 10:27:04;;;;;;;3.35;0.90;;;;;;;;;;5066680;28;20032;-71
2021/03/04 10:29:32;;;;;;;7.75;1.05;;;;;;;;;;5069518;28;20524;-70
2021/03/04 10:31:58;;;;;;;;;;;;;;;;;;5067002;28;20044;-71
2021/03/04 10:34:25;;;;;;;4.03;1.10;;;;;;;;;;5060089;28;19920;-71
2021/03/04 10:36:51;;;;;;;5.18;0.80;;;;;;;;;;5067586;28;20056;-71
2021/03/04 10:39:18;;;;;;;6.68;0.90;;;;;;;;;;5067692;28;20514;-71
2021/03/04 10:41:45;;;;;;;4.45;1.20;;;;;;;;;;5061551;28;20041;-71
2021/03/04 10:44:11;;;;;;;5.00;1.10;;;;;;;;;;5069295;28;20650;-71
2021/03/04 10:46:38;;;;;;;6.30;1.65;;;;;;;;;;5066208;28;20032;-71
2021/03/04 10:49:05;;;;;;;1.02;0.75;;;;;;;;;;5073988;28;20044;-71
2021/03/04 10:51:32;;;;;;;4.60;1.27;;;;;;;;;;5069286;28;20041;-71
2021/03/04 10:53:58;;;;;;;2.15;0.82;;;;;;;;;;5065395;28;20508;-71
2021/03/04 10:56:25;;;;;;;1.55;0.82;;;;;;;;;;5070611;28;20514;-71
2021/03/04 10:58:52;;;;;;;2.67;1.10;;;;;;;;;;5069677;28;20049;-71
2021/03/04 11:01:18;;;;;;;5.82;1.23;;;;;;;;;;5061586;28;20496;-71
2021/03/04 11:03:45;;;;;;;5.03;1.08;;;;;;;;;;5065522;28;20048;-72
2021/03/04 11:06:12;;;;;;;2.17;0.80;;;;;;;;;;5070661;28;20454;-72
2021/03/04 11:08:39;;;;;;;3.35;0.88;;;;;;;;;;5077335;28;20048;-71
2021/03/04 11:11:05;;;;;;;3.92;1.05;;;;;;;;;;5073220;28;20044;-71
2021/03/04 11:13:34;;;;;;;7.03;1.40;;;;;;;;;;5070522;28;20036;-71
2021/03/04 11:16:00;;;;;;;3.92;1.15;;;;;;;;;;5068102;28;20097;-71
2021/03/04 11:18:27;;;;;;;3.70;0.80;;;;;;;;;;5072665;28;20492;-71
2021/03/04 11:20:53;;;;;;;2.72;0.75;;;;;;;;;;5067124;28;20153;-71
2021/03/04 11:23:20;;;;;;;1.60;0.70;;;;;;;;;;5072234;28;20040;-71
2021/03/04 11:25:58;;;;;;;;;;;;;;;;;;5067810;28;20048;-71
2021/03/04 11:28:24;;;;;;;2.25;0.93;;;;;;;;;;5066893;28;19920;-71
2021/03/04 11:30:50;;;;;;;5.40;0.93;;;;;;;;;;5066329;28;20049;-71
2021/03/04 11:33:17;;;;;;;1.85;1.00;;;;;;;;;;5072210;28;20041;-72
2021/03/04 11:35:44;;;;;;;1.05;0.50;;;;;;;;;;5065018;28;20045;-72
2021/03/04 11:38:11;;;;;;;1.70;0.68;;;;;;;;;;5070600;28;20052;-72
2021/03/04 11:40:37;;;;;;;4.97;0.80;;;;;;;;;;5070104;28;20496;-72
2021/03/04 11:43:04;;;;;;;2.97;1.20;;;;;;;;;;5066751;28;20059;-72
2021/03/04 11:45:30;;;;;;;6.03;1.10;;;;;;;;;;5066345;28;20036;-72
2021/03/04 11:47:56;;;;;;;4.63;0.82;;;;;;;;;;5067492;28;20369;-71
2021/03/04 11:50:22;;;;;;;2.13;0.73;;;;;;;;;;5067658;28;20040;-72
2021/03/04 11:52:50;;;;;;;1.95;0.75;;;;;;;;;;5074976;28;20121;-71
2021/03/04 11:55:16;;;;;;;;;;;;;;;;;;5068356;28;20041;-71
2021/03/04 11:57:44;;;;;;;2.88;1.00;;;;;;;;;;5074824;28;19948;-71
2021/03/04 12:00:11;;;;;;;3.17;0.95;;;;;;;;;;5071944;28;20045;-72
2021/03/04 12:02:37;;;;;;;3.28;0.77;;;;;;;;;;5068540;28;20488;-72
2021/03/04 12:05:04;;;;;;;1.53;1.00;;;;;;;;;;5067390;28;20561;-71
2021/03/04 12:07:31;;;;;;;2.67;0.85;;;;;;;;;;5072134;28;20106;-71
2021/03/04 12:09:58;;;;;;;2.42;0.88;;;;;;;;;;5073439;28;20043;-71
2021/03/04 12:12:25;;;;;;;3.58;0.93;;;;;;;;;;5072618;28;20131;-71
2021/03/04 12:14:52;;;;;;;5.45;1.42;;;;;;;;;;5069124;28;20125;-72
2021/03/04 12:17:18;;;;;;;2.08;1.00;;;;;;;;;;5062753;28;20083;-72
2021/03/04 12:19:45;;;;;;;5.28;0.90;;;;;;;;;;5067055;28;20128;-72
2021/03/04 12:22:11;;;;;;;3.03;1.23;;;;;;;;;;5066757;28;20037;-72
2021/03/04 12:24:38;;;;;;;4.10;1.02;;;;;;;;;;5067163;28;20507;-72
2021/03/04 12:27:06;;;;;;;2.58;1.08;;;;;;;;;;5061296;28;20434;-71
2021/03/04 12:29:32;;;;;;;3.20;1.13;;;;;;;;;;5069607;28;20057;-71
2021/03/04 12:31:59;;;;;;;4.03;1.00;;;;;;;;;;5068281;28;20087;-72
2021/03/04 12:34:26;;;;;;;2.17;0.80;;;;;;;;;;5069761;28;20033;-72
2021/03/04 12:36:53;;;;;;;2.22;1.00;;;;;;;;;;5067013;28;20036;-72
2021/03/04 12:39:19;;;;;;;4.05;1.05;;;;;;;;;;5063451;28;20135;-73
2021/03/04 12:41:45;;;;;;;2.75;1.17;;;;;;;;;;5056913;28;20052;-72
2021/03/04 12:44:12;;;;;;;4.40;1.10;;;;;;;;;;5072906;28;20049;-72
2021/03/04 12:46:39;;;;;;;4.05;1.20;;;;;;;;;;5072465;28;20458;-72
2021/03/04 12:49:05;;;;;;;4.07;1.42;;;;;;;;;;5067085;28;20048;-72
2021/03/04 12:51:31;;;;;;;3.22;1.25;;;;;;;;;;5069833;28;20033;-72
2021/03/04 12:53:58;;;;;;;3.85;0.88;;;;;;;;;;5070246;28;20052;-72
2021/03/04 12:56:25;;;;;;;6.00;1.27;;;;;;;;;;5065005;28;20504;-72
2021/03/04 12:58:51;;;;;;;2.85;0.85;;;;;;;;;;5071878;28;20048;-72
2021/03/04 13:01:17;;;;;;;1.60;0.85;;;;;;;;;;5067099;28;20040;-73
2021/03/04 13:03:44;;;;;;;3.75;0.90;;;;;;;;;;5064130;28;20056;-72
2021/03/04 13:06:10;;;;;;;2.72;0.90;;;;;;;;;;5068716;28;20150;-72
2021/03/04 13:08:57;;;;;;;2.00;0.63;;;;;;;;;;5061108;28;20074;-72
2021/03/04 13:11:24;;;;;;;3.53;1.08;;;;;;;;;;5067962;28;20296;-72
2021/03/04 13:13:50;;;;;;;4.50;0.80;;;;;;;;;;5072781;28;20037;-72
2021/03/04 13:16:16;;;;;;;4.80;1.33;;;;;;;;;;5066891;28;20119;-72
2021/03/04 13:18:42;;;;;;;2.95;1.23;;;;;;;;;;5066593;28;20404;-72
2021/03/04 13:21:09;;;;;;;1.67;0.90;;;;;;;;;;5058321;28;20040;-72
2021/03/04 13:23:35;;;;;;;3.45;1.00;;;;;;;;;;5071761;28;20046;-72
2021/03/04 13:26:02;;;;;;;6.80;0.90;;;;;;;;;;5069841;28;20067;-73
2021/03/04 13:28:28;;;;;;;2.83;0.88;;;;;;;;;;5073271;28;20059;-72
2021/03/04 13:30:54;;;;;;;1.00;0.90;;;;;;;;;;5069978;28;20086;-72
2021/03/04 13:33:20;;;;;;;2.28;1.02;;;;;;;;;;5069150;28;20488;-72
2021/03/04 13:35:47;;;;;;;2.83;0.68;;;;;;;;;;5057815;28;20083;-72
2021/03/04 13:38:14;;;;;;;2.83;0.82;;;;;;;;;;5071623;28;20054;-72
2021/03/04 13:40:40;;;;;;;2.75;0.77;;;;;;;;;;5070552;28;20127;-72
2021/03/04 13:43:06;;;;;;;1.70;0.93;;;;;;;;;;5066925;28;20055;-72
2021/03/04 13:45:32;;;;;;;4.30;0.77;;;;;;;;;;5067128;28;20041;-72
2021/03/04 13:47:59;;;;;;;1.77;0.75;;;;;;;;;;5068525;28;20060;-72
2021/03/04 13:50:26;;;;;;;5.55;1.23;;;;;;;;;;5067555;28;20052;-72
2021/03/04 13:52:53;;;;;;;2.10;0.88;;;;;;;;;;5063909;28;20046;-72
2021/03/04 13:55:19;;;;;;;2.33;0.60;;;;;;;;;;5069491;28;20124;-72
2021/03/04 13:57:47;;;;;;;0.60;0.60;;;;;;;;;;5064971;28;20048;-72
2021/03/04 14:00:14;;;;;;;3.83;0.80;;;;;;;;;;5065607;28;20075;-72
2021/03/04 14:02:40;;;;;;;1.40;0.82;;;;;;;;;;5063955;28;20048;-72
2021/03/04 14:05:07;;;;;;;1.92;0.70;;;;;;;;;;5067788;28;20052;-73
2021/03/04 14:07:34;;;;;;;6.57;0.93;;;;;;;;;;5068759;28;20369;-72
2021/03/04 14:10:07;;;;;;;0.85;0.52;;;;;;;;;;5069206;28;20071;-72
2021/03/04 14:12:34;;;;;;;0.75;0.55;;;;;;;;;;5068797;28;20032;-72
2021/03/04 14:15:02;;;;;;;2.30;0.85;;;;;;;;;;5070456;28;20614;-72
2021/03/04 14:17:28;;;;;;;6.20;1.00;;;;;;;;;;5062742;28;20045;-72
2021/03/04 14:19:55;;;;;;;3.33;0.65;;;;;;;;;;5070191;28;20049;-72
2021/03/04 14:22:21;;;;;;;2.50;0.73;;;;;;;;;;5064827;28;20068;-72
2021/03/04 14:24:49;;;;;;;4.22;0.70;;;;;;;;;;5069398;28;20055;-73
2021/03/04 14:27:16;;;;;;;1.27;0.50;;;;;;;;;;5057978;28;20037;-72
2021/03/04 14:29:42;;;;;;;3.72;0.65;;;;;;;;;;5066545;28;20056;-72
2021/03/04 14:32:09;;;;;;;1.83;0.60;;;;;;;;;;5061014;28;20076;-73
2021/03/04 14:34:36;;;;;;;1.77;0.70;;;;;;;;;;5070017;28;20082;-72
2021/03/04 14:37:03;;;;;;;0.38;0.32;;;;;;;;;;5066959;28;20046;-72
2021/03/04 14:39:32;;;;;;;2.63;0.80;;;;;;;;;;5068739;28;20041;-72
2021/03/04 14:41:58;;;;;;;3.60;0.93;;;;;;;;;;5070307;28;20040;-72
2021/03/04 14:44:26;;;;;;;4.28;0.98;;;;;;;;;;5071012;28;20504;-72
2021/03/04 14:46:53;;;;;;;2.55;0.85;;;;;;;;;;5059712;28;20450;-72